Time;durP1;ratioP1;P1;durP2;ratioP2;P2;SDS_P1;SDS_P2;PMS_P1;PMS_P2;Temp;Humidity;BMP_temperature;BMP_pressure;BME280_temperature;BME280_humidity;BME280_pressure;Samples;Min_cycle;Max_cycle;Signal;HPM_P1;HPM_P2
2021/06/12 00:02:21;;;;;;;8.75;6.43;;;18.20;99.90;;;;;;5143836;27;20050;-84
2021/06/12 00:04:47;;;;;;;9.05;6.65;;;18.10;99.90;;;;;;5142933;27;20078;-83
2021/06/12 00:07:13;;;;;;;8.57;6.50;;;18.00;99.90;;;;;;5143712;27;20020;-84
2021/06/12 00:09:40;;;;;;;8.20;5.90;;;18.00;99.90;;;;;;5143682;27;20038;-77
2021/06/12 00:12:07;;;;;;;7.93;7.05;;;17.90;99.90;;;;;;5145059;27;20014;-77
2021/06/12 00:14:33;;;;;;;9.02;6.50;;;17.90;99.90;;;;;;5158154;27;20114;-77
2021/06/12 00:16:59;;;;;;;7.82;7.03;;;18.00;99.90;;;;;;5142642;27;20055;-77
2021/06/12 00:19:25;;;;;;;11.13;8.02;;;17.90;99.90;;;;;;5145697;27;20024;-78
2021/06/12 00:21:51;;;;;;;8.15;7.13;;;17.80;99.90;;;;;;5144028;27;20024;-80
2021/06/12 00:24:17;;;;;;;8.68;6.63;;;17.80;99.90;;;;;;5143174;27;20021;-80
2021/06/12 00:26:43;;;;;;;7.70;6.90;;;17.80;99.90;;;;;;5142888;27;20026;-77
2021/06/12 00:29:09;;;;;;;9.13;6.43;;;17.80;99.90;;;;;;5142850;27;20011;-85
2021/06/12 00:31:35;;;;;;;10.13;6.47;;;17.80;99.90;;;;;;5142534;27;20030;-79
2021/06/12 00:34:01;;;;;;;8.05;6.32;;;17.90;99.90;;;;;;5143139;27;20016;-85
2021/06/12 00:36:28;;;;;;;10.25;6.20;;;17.70;99.90;;;;;;5144220;27;20020;-80
2021/06/12 00:38:54;;;;;;;7.57;6.40;;;17.70;99.90;;;;;;5142451;27;20054;-83
2021/06/12 00:41:23;;;;;;;9.65;6.65;;;17.70;99.90;;;;;;5141601;27;20023;-78
2021/06/12 00:43:49;;;;;;;8.38;6.28;;;17.70;99.90;;;;;;5143720;27;20048;-78
2021/06/12 00:46:15;;;;;;;8.02;6.15;;;17.70;99.90;;;;;;5158992;27;20051;-77
2021/06/12 00:48:45;;;;;;;7.85;5.75;;;17.70;99.90;;;;;;5141442;27;20031;-84
2021/06/12 00:51:11;;;;;;;9.02;6.10;;;17.70;99.90;;;;;;5143935;27;20019;-78
2021/06/12 00:53:41;;;;;;;8.70;6.40;;;17.70;99.90;;;;;;5141899;27;20016;-83
2021/06/12 00:56:12;;;;;;;6.63;5.95;;;17.60;99.90;;;;;;5144005;27;20015;-83
2021/06/12 00:58:42;;;;;;;8.88;6.68;;;17.60;99.90;;;;;;5143379;27;20024;-80
2021/06/12 01:01:17;;;;;;;8.55;6.18;;;17.60;99.90;;;;;;5141768;27;20069;-82
2021/06/12 01:03:45;;;;;;;7.97;6.40;;;17.50;99.90;;;;;;5140330;27;20039;-78
2021/06/12 01:06:13;;;;;;;8.23;6.75;;;17.50;99.90;;;;;;5143745;27;20067;-78
2021/06/12 01:08:41;;;;;;;25.48;7.60;;;17.60;99.90;;;;;;5144453;27;20020;-77
2021/06/12 01:11:09;;;;;;;10.43;7.13;;;17.60;99.90;;;;;;5143480;27;20025;-79
2021/06/12 01:14:04;;;;;;;9.20;6.93;;;17.60;99.90;;;;;;5142095;27;20030;-77
2021/06/12 01:16:39;;;;;;;9.20;7.00;;;17.50;99.90;;;;;;5144017;27;20022;-79
2021/06/12 01:19:31;;;;;;;8.00;7.00;;;17.60;99.90;;;;;;5141829;27;20031;-78
2021/06/12 01:22:01;;;;;;;11.20;6.97;;;17.50;99.90;;;;;;5144432;27;20035;-78
2021/06/12 01:24:51;;;;;;;8.50;6.70;;;17.50;99.90;;;;;;5142062;27;20035;-83
2021/06/12 01:27:23;;;;;;;7.47;6.70;;;17.50;99.90;;;;;;5144375;27;20015;-81
2021/06/12 01:30:10;;;;;;;7.72;6.88;;;17.50;99.90;;;;;;5143078;27;20026;-79
2021/06/12 01:32:50;;;;;;;11.30;6.70;;;17.50;99.90;;;;;;5142916;27;20023;-80
2021/06/12 01:35:26;;;;;;;8.57;6.60;;;17.50;99.90;;;;;;5144232;27;20019;-81
2021/06/12 01:37:54;;;;;;;8.23;7.32;;;17.40;99.90;;;;;;5141635;27;20015;-86
2021/06/12 01:40:25;;;;;;;8.13;6.60;;;17.40;99.90;;;;;;5141940;27;20023;-77
2021/06/12 01:42:53;;;;;;;8.10;6.32;;;17.40;99.90;;;;;;5142844;27;20031;-77
2021/06/12 01:45:21;;;;;;;9.02;6.75;;;17.30;99.90;;;;;;5142638;27;20533;-79
2021/06/12 01:47:47;;;;;;;9.10;6.80;;;17.40;99.90;;;;;;5140009;27;20015;-82
2021/06/12 01:50:15;;;;;;;8.38;7.22;;;17.30;99.90;;;;;;5139460;27;20068;-81
2021/06/12 01:52:43;;;;;;;9.20;6.68;;;17.40;99.90;;;;;;5143036;27;20079;-85
2021/06/12 01:55:11;;;;;;;7.63;6.85;;;17.40;99.90;;;;;;5142308;27;20019;-79
2021/06/12 01:57:43;;;;;;;9.18;7.10;;;17.20;99.90;;;;;;5142879;27;20027;-84
2021/06/12 02:00:11;;;;;;;8.52;6.25;;;17.20;99.90;;;;;;5141401;27;20496;-77
2021/06/12 02:02:40;;;;;;;9.55;6.93;;;17.30;99.90;;;;;;5143017;27;20019;-78
2021/06/12 02:05:08;;;;;;;10.45;6.40;;;17.30;99.90;;;;;;5141816;27;20023;-81
2021/06/12 02:07:36;;;;;;;9.25;7.63;;;17.40;99.90;;;;;;5142655;27;20011;-86
2021/06/12 02:10:03;;;;;;;9.80;7.07;;;17.40;99.90;;;;;;5142016;27;20019;-82
2021/06/12 02:12:33;;;;;;;9.45;7.65;;;17.30;99.90;;;;;;5141547;27;20010;-83
2021/06/12 02:15:00;;;;;;;8.45;7.55;;;17.20;99.90;;;;;;5157555;27;20023;-77
2021/06/12 02:17:29;;;;;;;10.65;7.30;;;17.10;99.90;;;;;;5141540;27;20104;-84
2021/06/12 02:19:56;;;;;;;8.43;7.20;;;17.10;99.90;;;;;;5141137;27;20007;-78
2021/06/12 02:22:22;;;;;;;10.02;7.13;;;17.10;99.90;;;;;;5140599;27;20058;-85
2021/06/12 02:24:49;;;;;;;10.02;7.13;;;17.10;99.90;;;;;;5141634;27;20016;-78
2021/06/12 02:27:18;;;;;;;9.65;7.60;;;17.00;99.90;;;;;;5141233;27;20031;-77
2021/06/12 02:29:45;;;;;;;9.55;8.07;;;16.90;99.90;;;;;;5157230;27;20724;-78
2021/06/12 02:32:14;;;;;;;11.50;9.90;;;17.00;99.90;;;;;;5139569;27;20026;-79
2021/06/12 02:34:40;;;;;;;10.40;9.30;;;16.80;99.90;;;;;;5138977;27;20007;-80
2021/06/12 02:37:07;;;;;;;10.63;8.50;;;16.70;99.90;;;;;;5140882;27;20469;-78
2021/06/12 02:39:34;;;;;;;10.50;7.78;;;16.70;99.90;;;;;;5139627;27;20023;-76
2021/06/12 02:42:01;;;;;;;10.50;8.00;;;16.60;99.90;;;;;;5140617;27;20018;-85
2021/06/12 02:44:28;;;;;;;10.70;8.73;;;16.60;99.90;;;;;;5156938;27;20015;-82
2021/06/12 02:47:01;;;;;;;11.90;8.93;;;16.70;99.90;;;;;;5140114;27;20042;-80
2021/06/12 02:49:35;;;;;;;13.00;8.00;;;16.70;99.90;;;;;;5140639;27;20023;-85
2021/06/12 02:52:05;;;;;;;12.55;8.00;;;16.70;99.90;;;;;;5142272;27;20023;-77
2021/06/12 02:54:32;;;;;;;10.65;7.50;;;16.70;99.90;;;;;;5140674;27;20115;-81
2021/06/12 02:57:00;;;;;;;14.63;7.88;;;16.70;99.90;;;;;;5140512;27;20026;-84
2021/06/12 02:59:29;;;;;;;12.95;7.80;;;16.70;99.90;;;;;;5143228;27;20102;-76
2021/06/12 03:01:57;;;;;;;11.55;8.95;;;16.60;99.90;;;;;;5142032;27;20015;-77
2021/06/12 03:04:26;;;;;;;14.27;10.85;;;16.50;99.90;;;;;;5141166;27;20054;-77
2021/06/12 03:06:54;;;;;;;16.08;11.73;;;16.40;99.90;;;;;;5141830;27;20473;-84
2021/06/12 03:09:22;;;;;;;15.30;11.35;;;16.40;99.90;;;;;;5140849;27;20056;-83
2021/06/12 03:11:51;;;;;;;14.50;10.77;;;16.30;99.90;;;;;;5142618;27;20469;-84
2021/06/12 03:14:18;;;;;;;18.58;11.20;;;16.40;99.90;;;;;;5141996;27;20019;-80
2021/06/12 03:16:46;;;;;;;15.23;10.88;;;16.40;99.90;;;;;;5140863;27;20015;-82
2021/06/12 03:19:14;;;;;;;12.25;10.23;;;16.40;99.90;;;;;;5141544;27;20014;-80
2021/06/12 03:21:42;;;;;;;16.17;10.43;;;16.40;99.90;;;;;;5139811;27;20031;-85
2021/06/12 03:24:08;;;;;;;36.40;31.08;;;16.40;99.90;;;;;;5140032;28;20377;-84
2021/06/12 03:26:35;;;;;;;42.40;34.35;;;16.40;99.90;;;;;;5141047;27;20049;-84
2021/06/12 03:29:04;;;;;;;39.53;29.80;;;16.50;99.90;;;;;;5141078;27;20020;-78
2021/06/12 03:31:31;;;;;;;24.60;16.88;;;16.60;99.90;;;;;;5142445;27;20027;-78
2021/06/12 03:33:58;;;;;;;16.48;10.63;;;16.60;99.90;;;;;;5142358;27;20064;-76
2021/06/12 03:36:26;;;;;;;17.15;10.85;;;16.50;99.90;;;;;;5141622;27;20027;-80
2021/06/12 03:38:52;;;;;;;20.20;18.00;;;16.60;99.90;;;;;;5141971;27;20016;-77
2021/06/12 03:41:19;;;;;;;22.95;12.98;;;16.50;99.90;;;;;;5141888;27;20014;-83
2021/06/12 03:43:48;;;;;;;17.73;11.23;;;16.60;99.90;;;;;;5141888;27;20027;-79
2021/06/12 03:46:16;;;;;;;16.55;9.77;;;16.60;99.90;;;;;;5138978;28;20022;-84
2021/06/12 03:48:45;;;;;;;16.13;9.43;;;16.60;99.90;;;;;;5139069;28;20469;-83
2021/06/12 03:51:14;;;;;;;17.55;9.55;;;16.60;99.90;;;;;;5140950;28;20050;-77
2021/06/12 03:53:46;;;;;;;17.20;10.98;;;16.70;99.90;;;;;;5140203;27;20026;-83
2021/06/12 03:56:21;;;;;;;19.42;10.60;;;16.80;99.90;;;;;;5142051;27;20069;-77
2021/06/12 03:58:50;;;;;;;16.52;8.40;;;16.90;99.90;;;;;;5140128;27;20480;-78
2021/06/12 04:01:18;;;;;;;10.05;7.88;;;17.10;99.90;;;;;;5140077;27;20024;-81
2021/06/12 04:03:47;;;;;;;11.10;7.60;;;17.20;99.90;;;;;;5139236;28;20027;-77
2021/06/12 04:06:14;;;;;;;12.05;7.82;;;17.20;99.90;;;;;;5157137;27;20027;-84
2021/06/12 04:08:40;;;;;;;10.25;8.38;;;17.30;99.90;;;;;;5142769;27;20110;-80
2021/06/12 04:11:10;;;;;;;11.50;7.78;;;17.40;99.90;;;;;;5144202;27;20023;-77
2021/06/12 04:13:37;;;;;;;10.50;7.45;;;17.30;99.90;;;;;;5141943;27;20047;-76
2021/06/12 04:16:03;;;;;;;11.02;7.45;;;17.40;99.90;;;;;;5143831;27;20015;-77
2021/06/12 04:18:29;;;;;;;9.23;7.72;;;17.50;99.90;;;;;;5142877;27;20046;-83
2021/06/12 04:20:56;;;;;;;11.32;7.80;;;17.50;99.90;;;;;;5142859;27;20034;-78
2021/06/12 04:23:22;;;;;;;12.82;8.15;;;17.60;99.90;;;;;;5143708;27;20057;-77
2021/06/12 04:25:48;;;;;;;14.43;9.13;;;17.60;99.90;;;;;;5142221;27;20019;-83
2021/06/12 04:28:14;;;;;;;17.50;10.60;;;17.50;99.90;;;;;;5142349;27;20138;-85
2021/06/12 04:30:41;;;;;;;16.20;10.77;;;17.70;99.90;;;;;;5141216;27;20473;-77
2021/06/12 04:33:07;;;;;;;18.75;11.20;;;17.80;99.90;;;;;;5142168;27;20476;-83
2021/06/12 04:35:33;;;;;;;14.38;10.60;;;17.70;99.90;;;;;;5144245;27;20003;-83
2021/06/12 04:38:00;;;;;;;12.82;9.20;;;17.90;99.90;;;;;;5145101;27;20373;-84
2021/06/12 04:40:28;;;;;;;13.52;8.68;;;17.90;99.90;;;;;;5142730;27;20110;-83
2021/06/12 04:42:54;;;;;;;10.40;7.57;;;18.00;99.90;;;;;;5142061;27;20111;-76
2021/06/12 04:45:20;;;;;;;10.60;6.53;;;18.10;99.90;;;;;;5142772;27;20465;-78
2021/06/12 04:47:46;;;;;;;10.50;6.88;;;18.20;99.90;;;;;;5140732;27;20007;-79
2021/06/12 04:50:12;;;;;;;8.30;6.15;;;18.30;99.90;;;;;;5141926;27;20019;-85
2021/06/12 04:52:39;;;;;;;8.02;6.57;;;18.40;99.90;;;;;;5143931;27;20050;-78
2021/06/12 04:55:07;;;;;;;11.40;7.00;;;18.40;99.90;;;;;;5143882;27;20023;-77
2021/06/12 04:57:33;;;;;;;10.00;6.97;;;18.40;99.90;;;;;;5158286;27;20031;-85
2021/06/12 04:59:59;;;;;;;10.85;6.85;;;18.50;99.90;;;;;;5142115;27;20038;-77
2021/06/12 05:02:26;;;;;;;9.77;6.35;;;18.60;99.90;;;;;;5142329;27;20030;-84
2021/06/12 05:04:52;;;;;;;10.90;7.53;;;18.60;99.90;;;;;;5142304;27;20409;-78
2021/06/12 05:07:18;;;;;;;12.18;7.50;;;18.70;99.90;;;;;;5141634;27;20481;-83
2021/06/12 05:09:44;;;;;;;8.75;7.00;;;18.70;99.90;;;;;;5142549;27;20019;-77
2021/06/12 05:12:11;;;;;;;10.85;6.93;;;18.80;99.90;;;;;;5141829;27;20019;-78
2021/06/12 05:14:38;;;;;;;9.63;7.13;;;18.90;99.90;;;;;;5142134;27;20043;-83
2021/06/12 05:17:07;;;;;;;10.00;6.28;;;19.00;99.90;;;;;;5141887;27;20068;-82
2021/06/12 05:19:33;;;;;;;7.10;6.10;;;19.00;99.90;;;;;;5143353;27;20023;-84
2021/06/12 05:22:00;;;;;;;8.02;5.85;;;19.10;99.90;;;;;;5143268;27;20019;-83
2021/06/12 05:24:26;;;;;;;8.60;5.03;;;19.10;99.90;;;;;;5141799;27;20073;-80
2021/06/12 05:26:51;;;;;;;7.45;4.85;;;19.10;99.90;;;;;;5143122;27;20426;-88
2021/06/12 05:29:17;;;;;;;9.18;4.80;;;19.30;99.90;;;;;;5142305;27;20019;-79
2021/06/12 05:31:43;;;;;;;9.50;5.63;;;19.40;99.90;;;;;;5141995;27;20076;-86
2021/06/12 05:34:11;;;;;;;6.93;5.10;;;19.30;99.90;;;;;;5140450;27;20373;-78
2021/06/12 05:36:37;;;;;;;7.63;5.35;;;19.40;99.90;;;;;;5142602;27;20019;-86
2021/06/12 05:39:06;;;;;;;7.45;5.15;;;19.40;99.90;;;;;;5142042;27;20023;-84
2021/06/12 05:41:32;;;;;;;7.60;6.30;;;19.50;99.90;;;;;;5143270;27;20027;-86
2021/06/12 05:43:58;;;;;;;7.30;4.90;;;19.60;99.90;;;;;;5140896;27;20026;-83
2021/06/12 05:46:24;;;;;;;9.20;4.93;;;19.70;99.90;;;;;;5140796;27;20023;-88
2021/06/12 05:48:50;;;;;;;9.00;5.00;;;19.80;99.90;;;;;;5139730;27;20022;-78
2021/06/12 05:51:16;;;;;;;9.07;5.10;;;19.80;99.90;;;;;;5141408;27;20020;-90
2021/06/12 05:53:42;;;;;;;7.55;5.25;;;19.80;99.90;;;;;;5136524;27;20422;-75
2021/06/12 05:56:08;;;;;;;14.43;5.22;;;19.90;99.90;;;;;;5139236;27;20072;-76
2021/06/12 05:58:34;;;;;;;7.82;5.68;;;19.90;99.90;;;;;;5140499;27;20015;-87
2021/06/12 06:01:00;;;;;;;8.45;5.07;;;19.90;99.90;;;;;;5138204;27;20075;-77
2021/06/12 06:03:26;;;;;;;8.60;5.10;;;20.00;99.90;;;;;;5140151;27;20023;-78
2021/06/12 06:05:52;;;;;;;8.10;4.80;;;20.20;99.90;;;;;;5138085;27;20055;-77
2021/06/12 06:08:18;;;;;;;11.00;5.47;;;20.40;99.90;;;;;;5138110;27;20018;-76
2021/06/12 06:10:44;;;;;;;9.70;6.43;;;20.30;99.90;;;;;;5137905;27;20027;-78
2021/06/12 06:13:10;;;;;;;6.20;4.95;;;20.40;99.90;;;;;;5139238;27;20019;-80
2021/06/12 06:15:36;;;;;;;8.20;4.50;;;20.50;99.90;;;;;;5134725;27;20072;-78
2021/06/12 06:18:01;;;;;;;7.63;5.03;;;20.50;99.90;;;;;;5138453;27;20084;-77
2021/06/12 06:20:28;;;;;;;13.10;4.95;;;20.70;99.90;;;;;;5136928;27;20027;-79
2021/06/12 06:22:54;;;;;;;13.27;6.50;;;20.80;99.90;;;;;;5137935;27;20023;-77
2021/06/12 06:25:20;;;;;;;7.00;5.07;;;20.80;99.90;;;;;;5140535;27;20063;-79
2021/06/12 06:27:46;;;;;;;9.05;4.93;;;;;;;;;;5142483;27;20011;-80
2021/06/12 06:30:13;;;;;;;5.60;4.68;;;21.00;99.90;;;;;;5136759;27;20023;-79
2021/06/12 06:32:39;;;;;;;7.47;5.00;;;21.10;99.90;;;;;;5132828;27;20026;-78
2021/06/12 06:35:06;;;;;;;8.18;4.78;;;21.20;99.90;;;;;;5134424;27;20011;-76
2021/06/12 06:37:32;;;;;;;8.93;4.90;;;21.30;99.90;;;;;;5135534;27;20888;-77
2021/06/12 06:39:58;;;;;;;6.03;4.70;;;21.30;99.90;;;;;;5135297;27;20015;-76
2021/06/12 06:42:23;;;;;;;8.07;4.30;;;21.30;99.90;;;;;;5133183;27;20023;-77
2021/06/12 06:44:49;;;;;;;8.68;4.53;;;21.50;99.90;;;;;;5135016;27;20076;-78
2021/06/12 06:47:15;;;;;;;7.43;5.00;;;21.50;99.90;;;;;;5140949;27;20043;-78
2021/06/12 06:49:41;;;;;;;8.68;4.80;;;21.60;99.90;;;;;;5141961;27;20019;-77
2021/06/12 06:52:07;;;;;;;9.82;5.22;;;21.60;99.90;;;;;;5134965;27;20011;-77
2021/06/12 06:54:33;;;;;;;5.65;4.32;;;21.70;99.90;;;;;;5135369;27;20023;-78
2021/06/12 06:57:00;;;;;;;8.77;4.72;;;21.90;99.90;;;;;;5138341;27;20027;-87
2021/06/12 06:59:26;;;;;;;7.30;4.78;;;22.10;99.90;;;;;;5142466;27;20042;-77
2021/06/12 07:01:52;;;;;;;7.30;4.45;;;22.20;99.90;;;;;;5141314;27;20020;-76
2021/06/12 07:04:18;;;;;;;6.85;4.20;;;22.20;99.90;;;;;;5140165;28;20053;-80
2021/06/12 07:06:44;;;;;;;10.68;5.75;;;22.40;99.90;;;;;;5139492;28;20377;-76
2021/06/12 07:09:10;;;;;;;9.65;4.35;;;22.50;99.90;;;;;;5139040;28;20098;-81
2021/06/12 07:11:36;;;;;;;6.82;4.65;;;22.50;99.90;;;;;;5140606;28;20022;-78
2021/06/12 07:14:04;;;;;;;6.93;5.32;;;22.60;99.90;;;;;;5141278;28;20007;-82
2021/06/12 07:16:30;;;;;;;9.05;5.20;;;22.80;99.90;;;;;;5139494;28;20029;-75
2021/06/12 07:18:57;;;;;;;6.38;4.85;;;22.90;99.90;;;;;;5134191;27;20035;-76
2021/06/12 07:21:23;;;;;;;6.68;4.40;;;23.10;99.90;;;;;;5135061;27;20030;-77
2021/06/12 07:23:49;;;;;;;4.65;4.20;;;23.10;99.80;;;;;;5133385;28;20016;-78
2021/06/12 07:26:15;;;;;;;8.25;6.18;;;23.10;99.90;;;;;;5134272;28;20098;-80
2021/06/12 07:28:41;;;;;;;5.18;4.40;;;23.20;99.90;;;;;;5133971;28;20019;-75
2021/06/12 07:31:07;;;;;;;7.35;4.32;;;23.40;99.70;;;;;;5131729;27;20024;-76
2021/06/12 07:33:33;;;;;;;7.43;5.05;;;23.60;99.10;;;;;;5131583;27;20492;-80
2021/06/12 07:36:11;;;;;;;7.38;6.18;;;23.70;99.00;;;;;;5133561;27;20020;-77
2021/06/12 07:38:38;;;;;;;8.98;5.60;;;23.60;98.80;;;;;;5157029;27;20031;-77
2021/06/12 07:41:04;;;;;;;10.23;4.43;;;23.60;98.60;;;;;;5131248;27;20019;-75
2021/06/12 07:43:30;;;;;;;8.48;4.85;;;23.60;98.30;;;;;;5137762;27;20402;-76
2021/06/12 07:45:57;;;;;;;6.75;4.35;;;23.90;99.00;;;;;;5137946;27;20012;-77
2021/06/12 07:48:25;;;;;;;7.43;4.20;;;23.90;98.50;;;;;;5138155;27;20022;-74
2021/06/12 07:50:51;;;;;;;6.10;4.20;;;24.10;98.10;;;;;;5137564;27;20023;-80
2021/06/12 07:53:17;;;;;;;8.48;5.25;;;24.30;97.50;;;;;;5137862;27;20047;-77
2021/06/12 07:55:43;;;;;;;7.32;5.30;;;24.30;97.30;;;;;;5137243;27;20043;-78
2021/06/12 07:58:09;;;;;;;6.07;4.82;;;24.50;98.10;;;;;;5138062;27;20027;-75
2021/06/12 08:00:35;;;;;;;6.50;4.30;;;24.40;96.70;;;;;;5143518;27;20107;-76
2021/06/12 08:03:01;;;;;;;9.77;4.20;;;24.50;97.60;;;;;;5144444;27;20033;-76
2021/06/12 08:05:30;;;;;;;5.10;3.88;;;24.50;97.20;;;;;;5144852;27;20122;-79
2021/06/12 08:07:56;;;;;;;7.45;3.97;;;24.60;97.10;;;;;;5144891;27;20011;-77
2021/06/12 08:10:22;;;;;;;7.30;3.70;;;24.70;97.30;;;;;;5142560;27;20091;-75
2021/06/12 08:12:48;;;;;;;5.45;4.30;;;24.80;96.50;;;;;;5143690;27;20365;-76
2021/06/12 08:15:15;;;;;;;6.68;4.53;;;24.90;96.30;;;;;;5144288;27;20023;-80
2021/06/12 08:17:41;;;;;;;8.07;4.28;;;25.10;96.70;;;;;;5142545;27;20399;-77
2021/06/12 08:20:08;;;;;;;11.90;4.30;;;25.20;96.40;;;;;;5143091;27;20505;-76
2021/06/12 08:22:37;;;;;;;7.30;4.72;;;25.10;95.90;;;;;;5144626;27;20030;-80
2021/06/12 08:25:06;;;;;;;6.05;3.70;;;25.10;96.20;;;;;;5143927;27;20008;-77
2021/06/12 08:27:32;;;;;;;7.00;4.40;;;25.30;96.20;;;;;;5142747;27;20043;-80
2021/06/12 08:29:58;;;;;;;6.65;4.30;;;25.40;95.90;;;;;;5143196;27;20019;-78
2021/06/12 08:32:24;;;;;;;8.70;4.72;;;25.50;95.60;;;;;;5143686;27;20019;-76
2021/06/12 08:34:50;;;;;;;7.75;4.18;;;25.50;94.80;;;;;;5140988;27;20027;-81
2021/06/12 08:37:16;;;;;;;5.45;4.15;;;25.50;95.50;;;;;;5143938;27;20053;-76
2021/06/12 08:39:42;;;;;;;5.97;4.20;;;25.60;95.00;;;;;;5138156;27;20074;-77
2021/06/12 08:42:08;;;;;;;5.90;4.35;;;25.90;96.50;;;;;;5144602;27;20470;-77
2021/06/12 08:44:35;;;;;;;4.93;3.85;;;26.00;95.00;;;;;;5139793;27;20034;-76
2021/06/12 08:47:02;;;;;;;6.97;4.00;;;26.20;95.10;;;;;;5144004;27;20098;-79
2021/06/12 08:49:28;;;;;;;6.72;3.97;;;26.10;95.50;;;;;;5144506;27;20011;-77
2021/06/12 08:51:54;;;;;;;8.05;4.10;;;26.40;94.80;;;;;;5142763;27;20102;-76
2021/06/12 08:54:24;;;;;;;7.28;3.85;;;26.40;94.60;;;;;;5142606;27;20047;-76
2021/06/12 08:56:50;;;;;;;5.72;4.00;;;26.40;94.10;;;;;;5140989;27;20027;-77
2021/06/12 08:59:16;;;;;;;6.40;4.00;;;26.30;94.00;;;;;;5140335;27;20042;-81
2021/06/12 09:01:44;;;;;;;6.30;3.83;;;26.30;93.80;;;;;;5137585;27;20102;-75
2021/06/12 09:04:10;;;;;;;6.32;3.88;;;26.60;93.90;;;;;;5139289;27;20099;-81
2021/06/12 09:06:36;;;;;;;5.13;3.80;;;26.60;94.10;;;;;;5141587;27;20030;-76
2021/06/12 09:09:03;;;;;;;6.15;3.90;;;26.70;93.20;;;;;;5137224;27;20019;-75
2021/06/12 09:11:34;;;;;;;5.88;4.00;;;26.90;93.10;;;;;;5139402;27;20024;-78
2021/06/12 09:14:02;;;;;;;5.20;3.67;;;27.00;92.30;;;;;;5141219;27;20080;-79
2021/06/12 09:16:35;;;;;;;5.82;4.07;;;27.00;92.50;;;;;;5139384;27;20423;-76
2021/06/12 09:19:11;;;;;;;6.55;3.90;;;27.00;92.00;;;;;;5154916;27;20039;-76
2021/06/12 09:21:41;;;;;;;8.40;4.25;;;27.40;92.40;;;;;;5135336;27;20027;-75
2021/06/12 09:24:22;;;;;;;11.13;4.53;;;27.60;92.60;;;;;;5134345;27;20023;-78
2021/06/12 09:27:03;;;;;;;13.10;5.18;;;27.70;92.10;;;;;;5134215;27;20027;-78
2021/06/12 09:29:40;;;;;;;6.80;3.78;;;27.50;92.00;;;;;;5134564;27;20369;-75
2021/06/12 09:32:20;;;;;;;7.72;4.22;;;27.80;91.80;;;;;;5151380;27;20023;-78
2021/06/12 09:34:52;;;;;;;5.88;3.83;;;27.90;91.10;;;;;;5135476;27;20034;-80
2021/06/12 09:37:22;;;;;;;8.63;4.20;;;27.70;91.10;;;;;;5150875;27;20072;-77
2021/06/12 09:40:06;;;;;;;7.22;3.40;;;27.50;91.00;;;;;;5136840;27;20395;-77
2021/06/12 09:42:51;;;;;;;;;;;27.50;90.60;;;;;;5141887;27;20027;-78
2021/06/12 09:45:21;;;;;;;;;;;27.80;91.10;;;;;;5139227;27;19903;-79
2021/06/12 09:47:47;;;;;;;6.53;4.15;;;27.90;91.30;;;;;;5142314;27;19887;-84
2021/06/12 09:50:15;;;;;;;5.10;3.40;;;28.30;92.60;;;;;;5139273;27;20019;-76
2021/06/12 09:52:52;;;;;;;7.75;3.42;;;28.10;89.00;;;;;;5139458;27;20421;-79
2021/06/12 09:55:28;;;;;;;6.35;3.30;;;28.30;91.40;;;;;;5136355;27;20058;-80
2021/06/12 09:57:56;;;;;;;7.05;3.50;;;28.20;90.40;;;;;;5137155;27;20038;-79
2021/06/12 10:00:31;;;;;;;6.32;4.85;;;28.40;88.40;;;;;;5136319;27;20034;-78
2021/06/12 10:02:57;;;;;;;19.63;7.28;;;28.30;88.90;;;;;;5138251;27;20350;-78
2021/06/12 10:05:26;;;;;;;8.45;4.43;;;28.40;91.10;;;;;;5139390;27;20388;-74
2021/06/12 10:07:52;;;;;;;7.72;4.03;;;28.50;90.60;;;;;;5138544;27;20377;-79
2021/06/12 10:10:18;;;;;;;5.18;3.42;;;28.60;89.10;;;;;;5140918;27;20053;-75
2021/06/12 10:12:46;;;;;;;8.43;5.47;;;28.70;87.90;;;;;;5138363;27;20517;-77
2021/06/12 10:15:14;;;;;;;6.50;3.67;;;28.70;87.10;;;;;;5138515;27;20023;-79
2021/06/12 10:17:50;;;;;;;5.80;3.20;;;28.40;88.70;;;;;;5148403;27;20005;-81
2021/06/12 10:20:19;;;;;;;6.47;3.38;;;28.40;86.40;;;;;;5146775;27;20045;-76
2021/06/12 10:22:46;;;;;;;6.65;3.38;;;28.60;85.90;;;;;;5148007;27;20060;-77
2021/06/12 10:25:14;;;;;;;6.22;3.30;;;28.70;85.60;;;;;;5146756;27;20007;-78
2021/06/12 10:27:42;;;;;;;5.30;2.92;;;28.70;86.20;;;;;;5144853;27;20465;-83
2021/06/12 10:30:10;;;;;;;5.35;3.47;;;28.90;87.00;;;;;;5143512;27;20003;-80
2021/06/12 10:32:42;;;;;;;6.07;3.95;;;28.90;87.00;;;;;;5143812;27;20019;-76
2021/06/12 10:35:09;;;;;;;3.97;3.00;;;29.00;86.80;;;;;;5144959;27;20364;-79
2021/06/12 10:37:54;;;;;;;6.07;3.55;;;28.90;84.60;;;;;;5146176;27;20023;-76
2021/06/12 10:40:38;;;;;;;4.78;3.60;;;29.10;88.10;;;;;;5144242;27;20035;-82
2021/06/12 10:43:09;;;;;;;4.72;3.25;;;29.20;85.70;;;;;;5144820;27;20031;-75
2021/06/12 10:45:35;;;;;;;4.30;3.10;;;29.50;86.00;;;;;;5144239;27;20060;-80
2021/06/12 10:48:01;;;;;;;7.15;3.40;;;29.70;85.30;;;;;;5143037;27;20019;-79
2021/06/12 10:50:27;;;;;;;5.72;3.97;;;29.60;83.00;;;;;;5143547;27;20087;-83
2021/06/12 10:53:34;;;;;;;8.32;6.10;;;29.50;83.50;;;;;;5143059;27;20068;-83
2021/06/12 10:56:11;;;;;;;4.38;3.95;;;29.50;83.40;;;;;;5143830;27;20019;-82
2021/06/12 10:58:41;;;;;;;5.10;3.25;;;29.60;84.70;;;;;;5142805;27;20027;-75
2021/06/12 11:01:07;;;;;;;3.88;3.03;;;29.60;84.50;;;;;;5139716;27;20038;-77
2021/06/12 11:09:31;;;;;;;4.72;3.53;;;29.50;83.50;;;;;;5147379;27;20035;-75
2021/06/12 11:12:00;;;;;;;4.78;2.88;;;29.40;88.30;;;;;;5143520;27;20015;-75
2021/06/12 11:14:28;;;;;;;6.30;3.30;;;29.20;85.10;;;;;;5144754;27;20015;-76
2021/06/12 11:17:10;;;;;;;4.32;3.20;;;29.30;85.20;;;;;;5145307;27;20396;-75
2021/06/12 11:20:09;;;;;;;4.18;2.97;;;29.40;82.30;;;;;;5149365;27;20031;-75
2021/06/12 11:22:55;;;;;;;5.38;3.50;;;29.40;83.10;;;;;;5148607;27;20470;-74
2021/06/12 11:25:24;;;;;;;9.10;3.42;;;29.70;85.00;;;;;;5145824;27;20027;-82
2021/06/12 11:28:14;;;;;;;6.72;3.58;;;29.70;82.90;;;;;;5150384;27;20070;-81
2021/06/12 11:30:40;;;;;;;4.00;3.47;;;29.80;83.80;;;;;;5147975;27;20003;-79
2021/06/12 11:33:07;;;;;;;4.22;3.15;;;29.90;84.40;;;;;;5148062;27;20019;-76
2021/06/12 11:35:55;;;;;;;5.25;3.00;;;30.30;82.90;;;;;;5144148;27;20026;-75
2021/06/12 11:38:38;;;;;;;3.00;2.47;;;30.40;82.50;;;;;;5146894;27;20023;-76
2021/06/12 11:41:13;;;;;;;5.38;3.20;;;29.40;81.10;;;;;;5144104;27;20027;-75
2021/06/12 11:43:52;;;;;;;4.63;2.85;;;29.10;85.80;;;;;;5144068;27;20024;-76
2021/06/12 11:46:33;;;;;;;4.63;2.72;;;29.20;84.40;;;;;;5148202;27;20020;-81
2021/06/12 11:49:02;;;;;;;4.43;2.72;;;29.60;82.60;;;;;;5147033;27;20068;-79
2021/06/12 11:51:37;;;;;;;4.95;2.85;;;29.40;91.40;;;;;;5163949;27;20030;-83
2021/06/12 11:54:09;;;;;;;5.10;3.00;;;29.10;81.90;;;;;;5148525;27;20483;-75
2021/06/12 11:56:58;;;;;;;5.60;3.00;;;28.70;83.50;;;;;;5145750;27;20031;-75
2021/06/12 11:59:27;;;;;;;4.25;3.28;;;28.90;84.10;;;;;;5165680;27;20011;-79
2021/06/12 12:02:00;;;;;;;6.03;4.47;;;29.40;83.80;;;;;;5147971;27;20011;-80
2021/06/12 12:04:40;;;;;;;4.82;3.58;;;29.30;83.30;;;;;;5148797;27;20128;-75
2021/06/12 12:07:11;;;;;;;6.38;4.20;;;29.10;82.80;;;;;;5148850;27;20057;-75
2021/06/12 12:09:45;;;;;;;6.57;2.88;;;28.90;81.70;;;;;;5148845;27;20020;-82
2021/06/12 12:12:15;;;;;;;5.82;2.95;;;29.30;83.60;;;;;;5148951;27;20058;-82
2021/06/12 12:14:43;;;;;;;3.90;2.92;;;29.40;83.20;;;;;;5148355;27;20031;-77
2021/06/12 12:17:26;;;;;;;4.65;3.00;;;28.80;82.60;;;;;;5145745;27;20055;-75
2021/06/12 12:20:10;;;;;;;8.30;2.95;;;29.10;81.80;;;;;;5144583;27;20031;-81
2021/06/12 12:22:41;;;;;;;4.80;3.03;;;29.40;79.70;;;;;;5143527;27;20035;-80
2021/06/12 12:25:10;;;;;;;4.40;2.90;;;30.00;83.20;;;;;;5143168;27;20034;-78
2021/06/12 12:27:36;;;;;;;5.18;2.67;;;29.70;81.10;;;;;;5142213;27;20015;-79
2021/06/12 12:30:03;;;;;;;4.18;2.80;;;29.80;83.30;;;;;;5143481;27;20023;-82
2021/06/12 12:32:29;;;;;;;5.55;2.58;;;29.90;80.20;;;;;;5160638;27;20110;-80
2021/06/12 12:34:55;;;;;;;4.72;2.92;;;30.10;77.50;;;;;;5143419;27;20027;-79
2021/06/12 12:37:30;;;;;;;3.92;2.55;;;30.30;79.60;;;;;;5143742;27;20028;-79
2021/06/12 12:39:56;;;;;;;5.60;2.70;;;30.40;79.00;;;;;;5143277;27;20373;-82
2021/06/12 12:42:24;;;;;;;6.43;2.90;;;30.20;77.90;;;;;;5142086;27;20009;-84
2021/06/12 12:44:58;;;;;;;4.50;3.60;;;30.20;80.60;;;;;;5143538;27;20029;-81
2021/06/12 12:47:25;;;;;;;5.20;3.20;;;30.40;78.40;;;;;;5160208;27;20393;-80
2021/06/12 12:49:52;;;;;;;5.22;2.50;;;30.60;77.50;;;;;;5143194;27;20022;-82
2021/06/12 12:52:24;;;;;;;4.22;2.65;;;30.60;77.30;;;;;;5142240;27;20026;-81
2021/06/12 12:55:11;;;;;;;4.10;2.58;;;30.50;75.20;;;;;;5142535;27;20023;-77
2021/06/12 12:57:52;;;;;;;5.60;2.70;;;30.30;76.20;;;;;;5140047;27;20035;-79
2021/06/12 13:00:28;;;;;;;4.80;3.58;;;30.40;76.40;;;;;;5136357;27;20102;-77